sensor_id;sensor_type;location;lat;lon;timestamp;P1;durP1;ratioP1;P2;durP2;ratioP2
46022;SDS011;31756;47.936;16.224;2022-09-12T00:01:34;5.03;;;4.57;;
46022;SDS011;31756;47.936;16.224;2022-09-12T00:04:00;5.38;;;4.82;;
46022;SDS011;31756;47.936;16.224;2022-09-12T00:06:27;4.95;;;4.38;;
46022;SDS011;31756;47.936;16.224;2022-09-12T00:08:53;6.85;;;4.60;;
46022;SDS011;31756;47.936;16.224;2022-09-12T00:11:19;5.28;;;4.88;;
46022;SDS011;31756;47.936;16.224;2022-09-12T00:13:44;4.60;;;4.30;;
46022;SDS011;31756;47.936;16.224;2022-09-12T00:16:13;4.97;;;4.38;;
46022;SDS011;31756;47.936;16.224;2022-09-12T00:18:39;4.80;;;4.50;;
46022;SDS011;31756;47.936;16.224;2022-09-12T00:21:04;4.90;;;4.30;;
46022;SDS011;31756;47.936;16.224;2022-09-12T00:23:30;5.13;;;4.72;;
46022;SDS011;31756;47.936;16.224;2022-09-12T00:25:56;4.93;;;4.53;;
46022;SDS011;31756;47.936;16.224;2022-09-12T00:28:21;4.97;;;4.57;;
46022;SDS011;31756;47.936;16.224;2022-09-12T00:30:47;4.53;;;4.18;;
46022;SDS011;31756;47.936;16.224;2022-09-12T00:33:12;5.15;;;4.65;;
46022;SDS011;31756;47.936;16.224;2022-09-12T00:35:42;5.95;;;5.45;;
46022;SDS011;31756;47.936;16.224;2022-09-12T00:38:08;6.35;;;5.75;;
46022;SDS011;31756;47.936;16.224;2022-09-12T00:40:33;7.03;;;6.03;;
46022;SDS011;31756;47.936;16.224;2022-09-12T00:42:58;6.38;;;5.85;;
46022;SDS011;31756;47.936;16.224;2022-09-12T00:45:26;6.88;;;6.25;;
46022;SDS011;31756;47.936;16.224;2022-09-12T00:47:52;5.90;;;5.28;;
46022;SDS011;31756;47.936;16.224;2022-09-12T00:50:17;6.05;;;5.53;;
46022;SDS011;31756;47.936;16.224;2022-09-12T00:52:44;6.43;;;5.82;;
46022;SDS011;31756;47.936;16.224;2022-09-12T00:57:55;6.50;;;5.97;;
46022;SDS011;31756;47.936;16.224;2022-09-12T01:00:22;6.55;;;6.00;;
46022;SDS011;31756;47.936;16.224;2022-09-12T01:02:49;6.72;;;6.22;;
46022;SDS011;31756;47.936;16.224;2022-09-12T01:05:15;6.60;;;6.00;;
46022;SDS011;31756;47.936;16.224;2022-09-12T01:07:40;7.57;;;6.88;;
46022;SDS011;31756;47.936;16.224;2022-09-12T01:10:07;6.38;;;5.78;;
46022;SDS011;31756;47.936;16.224;2022-09-12T01:12:33;7.85;;;7.15;;
46022;SDS011;31756;47.936;16.224;2022-09-12T01:15:01;6.78;;;6.28;;
46022;SDS011;31756;47.936;16.224;2022-09-12T01:17:28;6.82;;;6.32;;
46022;SDS011;31756;47.936;16.224;2022-09-12T01:20:20;8.25;;;7.55;;
46022;SDS011;31756;47.936;16.224;2022-09-12T01:22:50;7.30;;;6.65;;
46022;SDS011;31756;47.936;16.224;2022-09-12T01:25:40;7.47;;;6.95;;
46022;SDS011;31756;47.936;16.224;2022-09-12T01:28:22;7.43;;;6.78;;
46022;SDS011;31756;47.936;16.224;2022-09-12T01:30:57;7.63;;;6.93;;
46022;SDS011;31756;47.936;16.224;2022-09-12T01:38:43;8.40;;;7.70;;
46022;SDS011;31756;47.936;16.224;2022-09-12T01:43:47;7.88;;;7.18;;
46022;SDS011;31756;47.936;16.224;2022-09-12T01:46:23;7.00;;;6.40;;
46022;SDS011;31756;47.936;16.224;2022-09-12T01:49:26;7.55;;;6.95;;
46022;SDS011;31756;47.936;16.224;2022-09-12T01:51:50;7.45;;;6.75;;
46022;SDS011;31756;47.936;16.224;2022-09-12T01:54:19;6.60;;;6.05;;
46022;SDS011;31756;47.936;16.224;2022-09-12T01:56:46;8.18;;;7.47;;
46022;SDS011;31756;47.936;16.224;2022-09-12T01:59:17;7.60;;;6.90;;
46022;SDS011;31756;47.936;16.224;2022-09-12T02:01:45;7.10;;;6.60;;
46022;SDS011;31756;47.936;16.224;2022-09-12T02:04:13;6.90;;;6.25;;
46022;SDS011;31756;47.936;16.224;2022-09-12T02:09:20;6.55;;;5.97;;
46022;SDS011;31756;47.936;16.224;2022-09-12T02:11:45;7.43;;;6.72;;
46022;SDS011;31756;47.936;16.224;2022-09-12T02:14:22;6.07;;;5.57;;
46022;SDS011;31756;47.936;16.224;2022-09-12T02:16:50;5.82;;;5.32;;
46022;SDS011;31756;47.936;16.224;2022-09-12T02:19:21;6.03;;;5.53;;
46022;SDS011;31756;47.936;16.224;2022-09-12T02:21:56;5.10;;;4.70;;
46022;SDS011;31756;47.936;16.224;2022-09-12T02:26:54;6.03;;;4.88;;
46022;SDS011;31756;47.936;16.224;2022-09-12T02:29:20;6.32;;;5.72;;
46022;SDS011;31756;47.936;16.224;2022-09-12T02:31:51;4.60;;;4.30;;
46022;SDS011;31756;47.936;16.224;2022-09-12T02:34:25;4.93;;;4.53;;
46022;SDS011;31756;47.936;16.224;2022-09-12T02:37:04;5.10;;;4.70;;
46022;SDS011;31756;47.936;16.224;2022-09-12T02:39:30;5.22;;;4.82;;
46022;SDS011;31756;47.936;16.224;2022-09-12T02:41:56;5.25;;;4.80;;
46022;SDS011;31756;47.936;16.224;2022-09-12T02:44:23;4.72;;;4.32;;
46022;SDS011;31756;47.936;16.224;2022-09-12T02:46:50;4.90;;;4.50;;
46022;SDS011;31756;47.936;16.224;2022-09-12T02:49:17;4.80;;;4.40;;
46022;SDS011;31756;47.936;16.224;2022-09-12T02:51:43;5.45;;;5.05;;
46022;SDS011;31756;47.936;16.224;2022-09-12T02:54:08;5.25;;;4.95;;
46022;SDS011;31756;47.936;16.224;2022-09-12T02:56:34;4.93;;;4.47;;
46022;SDS011;31756;47.936;16.224;2022-09-12T02:59:03;5.30;;;4.80;;
46022;SDS011;31756;47.936;16.224;2022-09-12T03:01:35;5.70;;;5.15;;
46022;SDS011;31756;47.936;16.224;2022-09-12T03:06:36;5.95;;;5.35;;
46022;SDS011;31756;47.936;16.224;2022-09-12T03:09:11;4.72;;;4.32;;
46022;SDS011;31756;47.936;16.224;2022-09-12T03:14:17;5.18;;;4.78;;
46022;SDS011;31756;47.936;16.224;2022-09-12T03:19:28;5.60;;;5.10;;
46022;SDS011;31756;47.936;16.224;2022-09-12T03:24:26;4.63;;;4.22;;
46022;SDS011;31756;47.936;16.224;2022-09-12T03:29:27;5.07;;;4.67;;
46022;SDS011;31756;47.936;16.224;2022-09-12T03:31:54;4.75;;;4.45;;
46022;SDS011;31756;47.936;16.224;2022-09-12T03:34:21;5.57;;;5.07;;
46022;SDS011;31756;47.936;16.224;2022-09-12T03:36:47;4.82;;;4.47;;
46022;SDS011;31756;47.936;16.224;2022-09-12T03:39:12;4.15;;;3.85;;
46022;SDS011;31756;47.936;16.224;2022-09-12T03:41:38;4.88;;;4.47;;
46022;SDS011;31756;47.936;16.224;2022-09-12T03:44:03;4.40;;;4.10;;
46022;SDS011;31756;47.936;16.224;2022-09-12T03:46:28;4.45;;;4.05;;
46022;SDS011;31756;47.936;16.224;2022-09-12T03:48:53;4.70;;;4.38;;
46022;SDS011;31756;47.936;16.224;2022-09-12T03:51:18;5.53;;;4.82;;
46022;SDS011;31756;47.936;16.224;2022-09-12T03:53:44;4.80;;;4.38;;
46022;SDS011;31756;47.936;16.224;2022-09-12T03:56:12;5.43;;;4.95;;
46022;SDS011;31756;47.936;16.224;2022-09-12T03:58:37;4.45;;;4.03;;
46022;SDS011;31756;47.936;16.224;2022-09-12T04:01:09;4.40;;;4.10;;
46022;SDS011;31756;47.936;16.224;2022-09-12T04:03:37;4.20;;;3.90;;
46022;SDS011;31756;47.936;16.224;2022-09-12T04:06:03;4.90;;;4.50;;
46022;SDS011;31756;47.936;16.224;2022-09-12T04:08:28;5.03;;;4.63;;
46022;SDS011;31756;47.936;16.224;2022-09-12T04:10:53;4.30;;;4.00;;
46022;SDS011;31756;47.936;16.224;2022-09-12T04:13:18;4.47;;;4.18;;
46022;SDS011;31756;47.936;16.224;2022-09-12T04:15:54;4.50;;;4.10;;
46022;SDS011;31756;47.936;16.224;2022-09-12T04:18:19;4.75;;;4.40;;
46022;SDS011;31756;47.936;16.224;2022-09-12T04:20:44;4.65;;;4.35;;
46022;SDS011;31756;47.936;16.224;2022-09-12T04:23:09;4.75;;;4.22;;
46022;SDS011;31756;47.936;16.224;2022-09-12T04:25:35;4.40;;;4.05;;
46022;SDS011;31756;47.936;16.224;2022-09-12T04:28:00;5.00;;;4.60;;
46022;SDS011;31756;47.936;16.224;2022-09-12T04:30:25;4.82;;;4.45;;
46022;SDS011;31756;47.936;16.224;2022-09-12T04:32:50;4.22;;;3.85;;
46022;SDS011;31756;47.936;16.224;2022-09-12T04:35:16;5.47;;;4.47;;
46022;SDS011;31756;47.936;16.224;2022-09-12T04:37:41;4.70;;;4.35;;
46022;SDS011;31756;47.936;16.224;2022-09-12T04:40:06;8.57;;;4.65;;
46022;SDS011;31756;47.936;16.224;2022-09-12T04:42:32;4.30;;;3.85;;
46022;SDS011;31756;47.936;16.224;2022-09-12T04:44:57;4.93;;;4.45;;
46022;SDS011;31756;47.936;16.224;2022-09-12T04:47:22;5.97;;;5.35;;
46022;SDS011;31756;47.936;16.224;2022-09-12T04:49:47;5.40;;;4.93;;
46022;SDS011;31756;47.936;16.224;2022-09-12T04:52:15;4.97;;;4.57;;
46022;SDS011;31756;47.936;16.224;2022-09-12T04:54:40;6.03;;;5.32;;
46022;SDS011;31756;47.936;16.224;2022-09-12T04:57:05;6.75;;;5.60;;
46022;SDS011;31756;47.936;16.224;2022-09-12T04:59:30;5.35;;;4.95;;
46022;SDS011;31756;47.936;16.224;2022-09-12T05:01:55;5.00;;;4.63;;
46022;SDS011;31756;47.936;16.224;2022-09-12T05:04:21;5.47;;;4.97;;
46022;SDS011;31756;47.936;16.224;2022-09-12T05:06:46;5.55;;;4.95;;
46022;SDS011;31756;47.936;16.224;2022-09-12T05:09:11;6.60;;;5.20;;
46022;SDS011;31756;47.936;16.224;2022-09-12T05:11:38;6.00;;;5.40;;
46022;SDS011;31756;47.936;16.224;2022-09-12T05:14:04;6.88;;;5.80;;
46022;SDS011;31756;47.936;16.224;2022-09-12T05:16:29;4.95;;;4.65;;
46022;SDS011;31756;47.936;16.224;2022-09-12T05:18:56;5.10;;;4.60;;
46022;SDS011;31756;47.936;16.224;2022-09-12T05:21:22;5.72;;;5.13;;
46022;SDS011;31756;47.936;16.224;2022-09-12T05:23:55;6.60;;;5.57;;
46022;SDS011;31756;47.936;16.224;2022-09-12T05:26:21;6.70;;;4.95;;
46022;SDS011;31756;47.936;16.224;2022-09-12T05:28:48;5.85;;;5.35;;
46022;SDS011;31756;47.936;16.224;2022-09-12T05:31:24;5.68;;;5.22;;
46022;SDS011;31756;47.936;16.224;2022-09-12T05:33:50;6.25;;;5.63;;
46022;SDS011;31756;47.936;16.224;2022-09-12T05:36:17;6.05;;;5.55;;
46022;SDS011;31756;47.936;16.224;2022-09-12T05:38:43;5.63;;;5.13;;
46022;SDS011;31756;47.936;16.224;2022-09-12T05:41:10;6.03;;;5.53;;
46022;SDS011;31756;47.936;16.224;2022-09-12T05:43:36;5.70;;;5.10;;
46022;SDS011;31756;47.936;16.224;2022-09-12T05:46:05;5.10;;;4.78;;
46022;SDS011;31756;47.936;16.224;2022-09-12T05:48:32;5.90;;;5.28;;
46022;SDS011;31756;47.936;16.224;2022-09-12T05:51:02;7.28;;;5.78;;
46022;SDS011;31756;47.936;16.224;2022-09-12T05:53:29;6.03;;;5.53;;
46022;SDS011;31756;47.936;16.224;2022-09-12T05:56:05;6.40;;;5.80;;
46022;SDS011;31756;47.936;16.224;2022-09-12T05:58:31;6.75;;;5.60;;
46022;SDS011;31756;47.936;16.224;2022-09-12T06:01:00;8.02;;;7.32;;
46022;SDS011;31756;47.936;16.224;2022-09-12T06:03:25;8.60;;;5.68;;
46022;SDS011;31756;47.936;16.224;2022-09-12T06:05:50;5.72;;;4.97;;
46022;SDS011;31756;47.936;16.224;2022-09-12T06:08:15;6.05;;;5.45;;
46022;SDS011;31756;47.936;16.224;2022-09-12T06:10:41;4.88;;;4.43;;
46022;SDS011;31756;47.936;16.224;2022-09-12T06:13:07;5.25;;;4.75;;
46022;SDS011;31756;47.936;16.224;2022-09-12T06:15:32;5.25;;;4.75;;
46022;SDS011;31756;47.936;16.224;2022-09-12T06:17:57;5.65;;;5.05;;
46022;SDS011;31756;47.936;16.224;2022-09-12T06:20:23;5.38;;;4.88;;
46022;SDS011;31756;47.936;16.224;2022-09-12T06:22:48;6.20;;;5.60;;
46022;SDS011;31756;47.936;16.224;2022-09-12T06:25:16;5.95;;;5.35;;
46022;SDS011;31756;47.936;16.224;2022-09-12T06:27:42;5.63;;;5.18;;
46022;SDS011;31756;47.936;16.224;2022-09-12T06:30:07;5.45;;;4.90;;
46022;SDS011;31756;47.936;16.224;2022-09-12T06:32:32;6.45;;;5.85;;
46022;SDS011;31756;47.936;16.224;2022-09-12T06:34:58;6.80;;;5.07;;
46022;SDS011;31756;47.936;16.224;2022-09-12T06:37:24;5.40;;;5.00;;
46022;SDS011;31756;47.936;16.224;2022-09-12T06:39:49;4.90;;;4.60;;
46022;SDS011;31756;47.936;16.224;2022-09-12T06:42:14;5.90;;;4.47;;
46022;SDS011;31756;47.936;16.224;2022-09-12T06:44:40;4.22;;;3.92;;
46022;SDS011;31756;47.936;16.224;2022-09-12T06:47:05;4.13;;;3.83;;
46022;SDS011;31756;47.936;16.224;2022-09-12T06:49:31;4.65;;;4.35;;
46022;SDS011;31756;47.936;16.224;2022-09-12T06:51:56;5.03;;;4.53;;
46022;SDS011;31756;47.936;16.224;2022-09-12T06:54:22;4.53;;;4.13;;
46022;SDS011;31756;47.936;16.224;2022-09-12T06:56:47;4.40;;;4.07;;
46022;SDS011;31756;47.936;16.224;2022-09-12T06:59:12;4.72;;;4.30;;
46022;SDS011;31756;47.936;16.224;2022-09-12T07:01:38;5.45;;;4.22;;
46022;SDS011;31756;47.936;16.224;2022-09-12T07:04:04;5.05;;;4.20;;
46022;SDS011;31756;47.936;16.224;2022-09-12T07:06:39;4.10;;;3.80;;
46022;SDS011;31756;47.936;16.224;2022-09-12T07:09:05;4.72;;;4.32;;
46022;SDS011;31756;47.936;16.224;2022-09-12T07:11:32;4.28;;;3.85;;
46022;SDS011;31756;47.936;16.224;2022-09-12T07:13:58;4.88;;;3.78;;
46022;SDS011;31756;47.936;16.224;2022-09-12T07:16:23;3.95;;;3.47;;
46022;SDS011;31756;47.936;16.224;2022-09-12T07:18:53;4.18;;;3.88;;
46022;SDS011;31756;47.936;16.224;2022-09-12T07:21:18;4.22;;;3.67;;
46022;SDS011;31756;47.936;16.224;2022-09-12T07:23:44;4.90;;;4.50;;
46022;SDS011;31756;47.936;16.224;2022-09-12T07:26:10;6.90;;;4.40;;
46022;SDS011;31756;47.936;16.224;2022-09-12T07:28:36;5.90;;;4.53;;
46022;SDS011;31756;47.936;16.224;2022-09-12T07:31:34;4.82;;;4.43;;
46022;SDS011;31756;47.936;16.224;2022-09-12T07:33:53;6.07;;;5.53;;
46022;SDS011;31756;47.936;16.224;2022-09-12T07:36:19;5.70;;;5.13;;
46022;SDS011;31756;47.936;16.224;2022-09-12T07:38:46;5.43;;;4.57;;
46022;SDS011;31756;47.936;16.224;2022-09-12T07:41:12;5.20;;;4.70;;
46022;SDS011;31756;47.936;16.224;2022-09-12T07:43:37;4.80;;;4.38;;
46022;SDS011;31756;47.936;16.224;2022-09-12T07:46:02;4.22;;;3.92;;
46022;SDS011;31756;47.936;16.224;2022-09-12T07:48:28;4.72;;;4.32;;
46022;SDS011;31756;47.936;16.224;2022-09-12T07:50:59;5.57;;;5.07;;
46022;SDS011;31756;47.936;16.224;2022-09-12T07:53:25;5.05;;;4.20;;
46022;SDS011;31756;47.936;16.224;2022-09-12T07:55:52;6.90;;;5.47;;
46022;SDS011;31756;47.936;16.224;2022-09-12T07:58:17;7.03;;;4.70;;
46022;SDS011;31756;47.936;16.224;2022-09-12T08:00:42;11.52;;;5.45;;
46022;SDS011;31756;47.936;16.224;2022-09-12T08:03:09;5.40;;;4.30;;
46022;SDS011;31756;47.936;16.224;2022-09-12T08:05:35;5.18;;;4.78;;
46022;SDS011;31756;47.936;16.224;2022-09-12T08:08:01;6.03;;;4.30;;
46022;SDS011;31756;47.936;16.224;2022-09-12T08:10:26;6.15;;;4.70;;
46022;SDS011;31756;47.936;16.224;2022-09-12T08:12:51;5.40;;;4.90;;
46022;SDS011;31756;47.936;16.224;2022-09-12T08:15:16;5.30;;;4.88;;
46022;SDS011;31756;47.936;16.224;2022-09-12T08:17:43;5.40;;;4.65;;
46022;SDS011;31756;47.936;16.224;2022-09-12T08:20:09;6.32;;;5.60;;
46022;SDS011;31756;47.936;16.224;2022-09-12T08:22:34;6.63;;;4.38;;
46022;SDS011;31756;47.936;16.224;2022-09-12T08:24:59;4.88;;;4.40;;
46022;SDS011;31756;47.936;16.224;2022-09-12T08:27:25;5.63;;;4.75;;
46022;SDS011;31756;47.936;16.224;2022-09-12T08:29:50;4.97;;;4.43;;
46022;SDS011;31756;47.936;16.224;2022-09-12T08:32:15;4.30;;;3.95;;
46022;SDS011;31756;47.936;16.224;2022-09-12T08:34:40;4.80;;;4.40;;
46022;SDS011;31756;47.936;16.224;2022-09-12T08:37:06;5.25;;;4.75;;
46022;SDS011;31756;47.936;16.224;2022-09-12T08:39:31;4.85;;;4.45;;
46022;SDS011;31756;47.936;16.224;2022-09-12T08:42:01;5.22;;;4.80;;
46022;SDS011;31756;47.936;16.224;2022-09-12T08:49:31;4.90;;;4.50;;
46022;SDS011;31756;47.936;16.224;2022-09-12T08:51:58;4.75;;;3.95;;
46022;SDS011;31756;47.936;16.224;2022-09-12T08:54:25;7.90;;;4.45;;
46022;SDS011;31756;47.936;16.224;2022-09-12T08:56:53;5.07;;;4.38;;
46022;SDS011;31756;47.936;16.224;2022-09-12T08:59:21;5.55;;;4.20;;
46022;SDS011;31756;47.936;16.224;2022-09-12T09:01:47;4.57;;;3.92;;
46022;SDS011;31756;47.936;16.224;2022-09-12T09:09:22;5.88;;;3.78;;
46022;SDS011;31756;47.936;16.224;2022-09-12T09:11:59;4.60;;;4.20;;
46022;SDS011;31756;47.936;16.224;2022-09-12T09:19:46;4.93;;;4.40;;
46022;SDS011;31756;47.936;16.224;2022-09-12T09:22:15;4.45;;;4.07;;
46022;SDS011;31756;47.936;16.224;2022-09-12T09:24:44;4.25;;;3.85;;
46022;SDS011;31756;47.936;16.224;2022-09-12T09:29:36;4.65;;;4.15;;
46022;SDS011;31756;47.936;16.224;2022-09-12T09:32:09;4.35;;;4.05;;
46022;SDS011;31756;47.936;16.224;2022-09-12T09:34:37;4.30;;;3.90;;
46022;SDS011;31756;47.936;16.224;2022-09-12T09:37:15;4.07;;;3.75;;
46022;SDS011;31756;47.936;16.224;2022-09-12T09:42:13;3.83;;;3.53;;
46022;SDS011;31756;47.936;16.224;2022-09-12T09:44:42;3.25;;;3.05;;
46022;SDS011;31756;47.936;16.224;2022-09-12T09:47:09;4.30;;;2.97;;
46022;SDS011;31756;47.936;16.224;2022-09-12T09:49:34;3.72;;;3.17;;
46022;SDS011;31756;47.936;16.224;2022-09-12T09:52:00;5.13;;;3.70;;
46022;SDS011;31756;47.936;16.224;2022-09-12T09:54:36;3.95;;;3.17;;
46022;SDS011;31756;47.936;16.224;2022-09-12T09:57:03;4.15;;;3.58;;
46022;SDS011;31756;47.936;16.224;2022-09-12T09:59:32;3.53;;;3.22;;
46022;SDS011;31756;47.936;16.224;2022-09-12T10:01:59;3.28;;;3.00;;
46022;SDS011;31756;47.936;16.224;2022-09-12T10:04:31;3.63;;;3.33;;
46022;SDS011;31756;47.936;16.224;2022-09-12T10:06:58;3.50;;;3.20;;
46022;SDS011;31756;47.936;16.224;2022-09-12T10:09:25;5.68;;;3.33;;
46022;SDS011;31756;47.936;16.224;2022-09-12T10:11:51;4.13;;;2.90;;
46022;SDS011;31756;47.936;16.224;2022-09-12T10:14:27;3.45;;;3.20;;
46022;SDS011;31756;47.936;16.224;2022-09-12T10:16:52;4.30;;;3.40;;
46022;SDS011;31756;47.936;16.224;2022-09-12T10:19:22;4.75;;;3.45;;
46022;SDS011;31756;47.936;16.224;2022-09-12T10:21:51;4.07;;;3.08;;
46022;SDS011;31756;47.936;16.224;2022-09-12T10:24:20;3.22;;;2.92;;
46022;SDS011;31756;47.936;16.224;2022-09-12T10:26:48;3.35;;;3.15;;
46022;SDS011;31756;47.936;16.224;2022-09-12T10:29:14;3.78;;;3.28;;
46022;SDS011;31756;47.936;16.224;2022-09-12T10:31:42;3.75;;;3.47;;
46022;SDS011;31756;47.936;16.224;2022-09-12T10:34:18;3.15;;;2.95;;
46022;SDS011;31756;47.936;16.224;2022-09-12T10:36:44;3.60;;;3.08;;
46022;SDS011;31756;47.936;16.224;2022-09-12T10:39:10;3.35;;;2.95;;
46022;SDS011;31756;47.936;16.224;2022-09-12T10:41:38;4.05;;;3.60;;
46022;SDS011;31756;47.936;16.224;2022-09-12T10:44:11;3.97;;;3.63;;
46022;SDS011;31756;47.936;16.224;2022-09-12T10:46:38;3.10;;;2.90;;
46022;SDS011;31756;47.936;16.224;2022-09-12T10:49:18;2.90;;;2.70;;
46022;SDS011;31756;47.936;16.224;2022-09-12T10:51:45;3.42;;;3.17;;
46022;SDS011;31756;47.936;16.224;2022-09-12T10:54:11;3.33;;;3.13;;
46022;SDS011;31756;47.936;16.224;2022-09-12T11:04:25;3.10;;;2.90;;
46022;SDS011;31756;47.936;16.224;2022-09-12T11:09:41;3.58;;;3.22;;
46022;SDS011;31756;47.936;16.224;2022-09-12T11:17:10;5.18;;;3.90;;
46022;SDS011;31756;47.936;16.224;2022-09-12T11:34:51;3.08;;;2.88;;
46022;SDS011;31756;47.936;16.224;2022-09-12T11:37:39;3.55;;;3.15;;
46022;SDS011;31756;47.936;16.224;2022-09-12T11:42:48;3.35;;;3.15;;
46022;SDS011;31756;47.936;16.224;2022-09-12T11:45:18;3.25;;;3.05;;
46022;SDS011;31756;47.936;16.224;2022-09-12T11:47:45;3.47;;;3.17;;
46022;SDS011;31756;47.936;16.224;2022-09-12T11:50:15;3.95;;;3.55;;
46022;SDS011;31756;47.936;16.224;2022-09-12T11:52:42;3.55;;;3.33;;
46022;SDS011;31756;47.936;16.224;2022-09-12T11:55:15;3.67;;;3.38;;
46022;SDS011;31756;47.936;16.224;2022-09-12T11:57:44;3.80;;;3.50;;
46022;SDS011;31756;47.936;16.224;2022-09-12T12:00:16;3.47;;;3.17;;
46022;SDS011;31756;47.936;16.224;2022-09-12T12:12:58;3.90;;;3.60;;
46022;SDS011;31756;47.936;16.224;2022-09-12T12:15:25;4.53;;;3.05;;
46022;SDS011;31756;47.936;16.224;2022-09-12T12:20:46;2.88;;;2.67;;
46022;SDS011;31756;47.936;16.224;2022-09-12T12:23:28;4.22;;;3.08;;
46022;SDS011;31756;47.936;16.224;2022-09-12T12:25:55;5.50;;;3.55;;
46022;SDS011;31756;47.936;16.224;2022-09-12T12:31:04;3.33;;;3.10;;
46022;SDS011;31756;47.936;16.224;2022-09-12T12:38:30;3.08;;;2.88;;
46022;SDS011;31756;47.936;16.224;2022-09-12T12:43:39;3.08;;;2.88;;
46022;SDS011;31756;47.936;16.224;2022-09-12T12:46:05;2.88;;;2.67;;
46022;SDS011;31756;47.936;16.224;2022-09-12T12:48:32;2.90;;;2.70;;
46022;SDS011;31756;47.936;16.224;2022-09-12T12:53:45;3.00;;;2.80;;
46022;SDS011;31756;47.936;16.224;2022-09-12T12:56:27;3.42;;;2.63;;
46022;SDS011;31756;47.936;16.224;2022-09-12T12:58:57;3.33;;;3.00;;
46022;SDS011;31756;47.936;16.224;2022-09-12T13:01:23;3.22;;;2.88;;
46022;SDS011;31756;47.936;16.224;2022-09-12T13:03:53;3.10;;;2.90;;
46022;SDS011;31756;47.936;16.224;2022-09-12T13:06:41;3.15;;;2.92;;
46022;SDS011;31756;47.936;16.224;2022-09-12T13:09:27;3.40;;;3.13;;
46022;SDS011;31756;47.936;16.224;2022-09-12T13:12:01;3.28;;;3.00;;
46022;SDS011;31756;47.936;16.224;2022-09-12T13:16:59;3.20;;;3.00;;
46022;SDS011;31756;47.936;16.224;2022-09-12T13:19:33;3.35;;;3.05;;
46022;SDS011;31756;47.936;16.224;2022-09-12T13:24:25;3.50;;;3.20;;
46022;SDS011;31756;47.936;16.224;2022-09-12T13:26:50;3.40;;;3.17;;
46022;SDS011;31756;47.936;16.224;2022-09-12T13:29:18;3.53;;;3.00;;
46022;SDS011;31756;47.936;16.224;2022-09-12T13:31:44;5.63;;;2.67;;
46022;SDS011;31756;47.936;16.224;2022-09-12T13:34:12;2.88;;;2.70;;
46022;SDS011;31756;47.936;16.224;2022-09-12T13:42:01;2.70;;;2.50;;
46022;SDS011;31756;47.936;16.224;2022-09-12T13:44:28;3.88;;;3.17;;
46022;SDS011;31756;47.936;16.224;2022-09-12T13:46:54;3.22;;;3.03;;
46022;SDS011;31756;47.936;16.224;2022-09-12T13:49:40;3.15;;;2.95;;
46022;SDS011;31756;47.936;16.224;2022-09-12T13:52:07;5.28;;;3.05;;
46022;SDS011;31756;47.936;16.224;2022-09-12T13:54:34;3.42;;;3.22;;
46022;SDS011;31756;47.936;16.224;2022-09-12T13:57:02;3.63;;;3.42;;
46022;SDS011;31756;47.936;16.224;2022-09-12T13:59:28;3.28;;;3.08;;
46022;SDS011;31756;47.936;16.224;2022-09-12T14:02:01;2.63;;;2.42;;
46022;SDS011;31756;47.936;16.224;2022-09-12T14:04:28;2.85;;;2.72;;
46022;SDS011;31756;47.936;16.224;2022-09-12T14:07:13;3.70;;;3.22;;
46022;SDS011;31756;47.936;16.224;2022-09-12T14:09:40;3.55;;;3.25;;
46022;SDS011;31756;47.936;16.224;2022-09-12T14:12:13;2.58;;;2.38;;
46022;SDS011;31756;47.936;16.224;2022-09-12T14:14:42;3.47;;;3.08;;
46022;SDS011;31756;47.936;16.224;2022-09-12T14:19:48;2.58;;;2.47;;
46022;SDS011;31756;47.936;16.224;2022-09-12T14:22:13;2.60;;;2.40;;
46022;SDS011;31756;47.936;16.224;2022-09-12T14:24:44;2.55;;;2.40;;
46022;SDS011;31756;47.936;16.224;2022-09-12T14:27:20;5.03;;;2.88;;
46022;SDS011;31756;47.936;16.224;2022-09-12T14:29:47;2.88;;;2.67;;
46022;SDS011;31756;47.936;16.224;2022-09-12T14:32:19;4.53;;;3.05;;
46022;SDS011;31756;47.936;16.224;2022-09-12T14:35:02;2.95;;;2.53;;
46022;SDS011;31756;47.936;16.224;2022-09-12T14:37:28;3.88;;;2.50;;
46022;SDS011;31756;47.936;16.224;2022-09-12T14:39:53;3.92;;;2.70;;
46022;SDS011;31756;47.936;16.224;2022-09-12T14:42:19;3.10;;;2.80;;
46022;SDS011;31756;47.936;16.224;2022-09-12T14:44:55;3.28;;;3.08;;
46022;SDS011;31756;47.936;16.224;2022-09-12T14:47:22;3.00;;;2.35;;
46022;SDS011;31756;47.936;16.224;2022-09-12T14:49:48;2.83;;;2.63;;
46022;SDS011;31756;47.936;16.224;2022-09-12T14:52:26;3.85;;;3.08;;
46022;SDS011;31756;47.936;16.224;2022-09-12T14:54:59;3.15;;;2.72;;
46022;SDS011;31756;47.936;16.224;2022-09-12T15:02:41;3.00;;;2.78;;
46022;SDS011;31756;47.936;16.224;2022-09-12T15:10:05;3.63;;;3.42;;
46022;SDS011;31756;47.936;16.224;2022-09-12T15:12:30;3.42;;;3.22;;
46022;SDS011;31756;47.936;16.224;2022-09-12T15:14:57;3.13;;;2.92;;
46022;SDS011;31756;47.936;16.224;2022-09-12T15:17:23;4.05;;;3.70;;
46022;SDS011;31756;47.936;16.224;2022-09-12T15:19:48;3.70;;;3.38;;
46022;SDS011;31756;47.936;16.224;2022-09-12T15:22:14;3.42;;;3.13;;
46022;SDS011;31756;47.936;16.224;2022-09-12T15:24:39;2.92;;;2.72;;
46022;SDS011;31756;47.936;16.224;2022-09-12T15:27:09;3.63;;;2.90;;
46022;SDS011;31756;47.936;16.224;2022-09-12T15:29:34;3.45;;;3.25;;
46022;SDS011;31756;47.936;16.224;2022-09-12T15:32:00;3.42;;;3.17;;
46022;SDS011;31756;47.936;16.224;2022-09-12T15:34:25;3.22;;;3.03;;
46022;SDS011;31756;47.936;16.224;2022-09-12T15:36:50;5.20;;;3.17;;
46022;SDS011;31756;47.936;16.224;2022-09-12T15:39:15;3.33;;;3.13;;
46022;SDS011;31756;47.936;16.224;2022-09-12T15:41:42;3.53;;;3.20;;
46022;SDS011;31756;47.936;16.224;2022-09-12T15:44:10;3.88;;;3.58;;
46022;SDS011;31756;47.936;16.224;2022-09-12T15:46:36;3.40;;;3.20;;
46022;SDS011;31756;47.936;16.224;2022-09-12T15:49:01;5.45;;;3.25;;
46022;SDS011;31756;47.936;16.224;2022-09-12T15:51:26;3.10;;;2.90;;
46022;SDS011;31756;47.936;16.224;2022-09-12T15:53:52;3.47;;;3.28;;
46022;SDS011;31756;47.936;16.224;2022-09-12T15:56:18;3.90;;;3.60;;
46022;SDS011;31756;47.936;16.224;2022-09-12T15:58:43;2.90;;;2.70;;
46022;SDS011;31756;47.936;16.224;2022-09-12T16:01:12;3.35;;;3.08;;
46022;SDS011;31756;47.936;16.224;2022-09-12T16:03:37;2.90;;;2.53;;
46022;SDS011;31756;47.936;16.224;2022-09-12T16:06:03;2.70;;;2.50;;
46022;SDS011;31756;47.936;16.224;2022-09-12T16:08:29;3.22;;;2.90;;
46022;SDS011;31756;47.936;16.224;2022-09-12T16:10:59;3.08;;;2.88;;
46022;SDS011;31756;47.936;16.224;2022-09-12T16:13:25;3.15;;;2.92;;
46022;SDS011;31756;47.936;16.224;2022-09-12T16:15:51;2.80;;;2.67;;
46022;SDS011;31756;47.936;16.224;2022-09-12T16:18:16;2.53;;;2.33;;
46022;SDS011;31756;47.936;16.224;2022-09-12T16:20:42;2.95;;;2.75;;
46022;SDS011;31756;47.936;16.224;2022-09-12T16:23:10;3.72;;;2.90;;
46022;SDS011;31756;47.936;16.224;2022-09-12T16:25:36;5.05;;;3.50;;
46022;SDS011;31756;47.936;16.224;2022-09-12T16:28:03;4.43;;;3.10;;
46022;SDS011;31756;47.936;16.224;2022-09-12T16:30:30;5.43;;;3.80;;
46022;SDS011;31756;47.936;16.224;2022-09-12T16:32:55;5.25;;;2.97;;
46022;SDS011;31756;47.936;16.224;2022-09-12T16:35:20;2.97;;;2.78;;
46022;SDS011;31756;47.936;16.224;2022-09-12T16:37:46;3.17;;;2.83;;
46022;SDS011;31756;47.936;16.224;2022-09-12T16:40:11;3.70;;;2.40;;
46022;SDS011;31756;47.936;16.224;2022-09-12T16:42:39;5.60;;;3.15;;
46022;SDS011;31756;47.936;16.224;2022-09-12T16:45:04;4.20;;;3.25;;
46022;SDS011;31756;47.936;16.224;2022-09-12T16:47:31;10.52;;;6.95;;
46022;SDS011;31756;47.936;16.224;2022-09-12T16:49:56;10.93;;;7.47;;